Time;durP1;ratioP1;P1;durP2;ratioP2;P2;SDS_P1;SDS_P2;PMS_P1;PMS_P2;Temp;Humidity;BMP_temperature;BMP_pressure;BME280_temperature;BME280_humidity;BME280_pressure;Samples;Min_cycle;Max_cycle;Signal;HPM_P1;HPM_P2
2023/02/08 00:01:08;;;;;;;17.05;7.65;;;;;;;-146.47;100.00;65468.63;4700977;30;20107;-72
2023/02/08 00:03:34;;;;;;;19.30;7.38;;;;;;;-146.47;100.00;65468.63;4701306;30;20057;-72
2023/02/08 00:05:59;;;;;;;17.80;7.38;;;;;;;-146.47;100.00;65468.63;4710951;30;20442;-72
2023/02/08 00:08:25;;;;;;;12.80;5.93;;;;;;;-146.47;100.00;65468.63;4698452;30;20050;-73
2023/02/08 00:10:50;;;;;;;14.93;7.32;;;;;;;-146.47;100.00;65468.63;4699968;30;20053;-72
2023/02/08 00:13:16;;;;;;;15.10;6.45;;;;;;;-146.47;100.00;65468.63;4699553;30;20529;-72
2023/02/08 00:15:42;;;;;;;18.50;6.82;;;;;;;-146.47;100.00;65468.63;4708051;30;20048;-72
2023/02/08 00:18:08;;;;;;;15.95;7.35;;;;;;;-146.47;100.00;65468.63;4701940;30;20053;-72
2023/02/08 00:20:34;;;;;;;13.38;6.13;;;;;;;-146.47;100.00;65468.63;4701227;30;20057;-73
2023/02/08 00:22:59;;;;;;;18.30;8.20;;;;;;;-146.47;100.00;65468.63;4706856;30;20053;-71
2023/02/08 00:25:25;;;;;;;14.85;6.70;;;;;;;-146.47;100.00;65468.63;4704479;30;20499;-72
2023/02/08 00:27:50;;;;;;;16.90;6.78;;;;;;;-146.47;100.00;65468.63;4708132;30;20151;-72
2023/02/08 00:30:16;;;;;;;18.00;7.45;;;;;;;-146.47;100.00;65468.63;4701545;30;20041;-72
2023/02/08 00:32:41;;;;;;;16.02;7.05;;;;;;;-146.47;100.00;65468.63;4698587;30;20050;-72
2023/02/08 00:35:07;;;;;;;14.80;6.38;;;;;;;-146.47;100.00;65468.63;4701691;30;20533;-72
2023/02/08 00:37:33;;;;;;;21.77;7.20;;;;;;;-146.47;100.00;65468.63;4698630;30;20120;-72
2023/02/08 00:40:01;;;;;;;16.27;7.78;;;;;;;-146.47;100.00;65468.63;4703175;30;20053;-72
2023/02/08 00:42:28;;;;;;;16.92;6.75;;;;;;;-146.47;100.00;65468.63;4700885;30;20502;-72
2023/02/08 00:44:53;;;;;;;15.52;6.93;;;;;;;-146.47;100.00;65468.63;4697799;30;20057;-72
2023/02/08 00:47:19;;;;;;;18.70;7.25;;;;;;;-146.47;100.00;65468.63;4699989;30;20065;-72
2023/02/08 00:49:44;;;;;;;19.10;7.15;;;;;;;-146.47;100.00;65468.63;4709530;30;20045;-72
2023/02/08 00:52:10;;;;;;;16.70;7.38;;;;;;;-146.47;100.00;65468.63;4699900;30;20050;-72
2023/02/08 00:54:36;;;;;;;16.45;6.72;;;;;;;-146.47;100.00;65468.63;4698151;30;20045;-72
2023/02/08 00:57:01;;;;;;;13.68;6.32;;;;;;;-146.47;100.00;65468.63;4699185;30;20053;-72
2023/02/08 00:59:27;;;;;;;13.57;6.45;;;;;;;-146.47;100.00;65468.63;4705639;30;20519;-72
2023/02/08 01:01:52;;;;;;;14.52;6.78;;;;;;;-146.47;100.00;65468.63;4704078;30;20065;-72
2023/02/08 01:04:18;;;;;;;15.52;6.72;;;;;;;-146.47;100.00;65468.63;4700417;30;20058;-72
2023/02/08 01:06:43;;;;;;;16.38;7.22;;;;;;;-146.47;100.00;65468.63;4704940;30;20053;-71
2023/02/08 01:09:09;;;;;;;19.40;6.45;;;;;;;-146.47;100.00;65468.63;4698116;30;20045;-71
2023/02/08 01:11:35;;;;;;;20.02;7.22;;;;;;;-146.47;100.00;65468.63;4698445;30;20404;-71
2023/02/08 01:14:00;;;;;;;18.48;6.72;;;;;;;-146.47;100.00;65468.63;4697690;30;20049;-71
2023/02/08 01:16:29;;;;;;;17.38;7.18;;;;;;;-146.47;100.00;65468.63;4697586;30;20041;-71
2023/02/08 01:18:57;;;;;;;15.00;6.70;;;;;;;-146.47;100.00;65468.63;4702764;30;20533;-72
2023/02/08 01:21:26;;;;;;;14.25;5.78;;;;;;;-146.47;100.00;65468.63;4704012;30;20042;-72
2023/02/08 01:23:52;;;;;;;17.10;6.68;;;;;;;-146.47;100.00;65468.63;4702660;30;20045;-72
2023/02/08 01:26:19;;;;;;;17.90;6.60;;;;;;;-146.47;100.00;65468.63;4702164;30;20198;-71
2023/02/08 01:28:45;;;;;;;20.42;7.00;;;;;;;-146.47;100.00;65468.63;4699020;30;20523;-72
2023/02/08 01:31:16;;;;;;;16.23;5.82;;;;;;;-146.47;100.00;65468.63;4698305;30;20052;-71
2023/02/08 01:33:42;;;;;;;21.88;7.18;;;;;;;-146.47;100.00;65468.63;4702843;30;20049;-71
2023/02/08 01:36:08;;;;;;;22.60;7.88;;;;;;;-146.47;100.00;65468.63;4710205;30;20107;-71
2023/02/08 01:38:35;;;;;;;17.17;6.88;;;;;;;-146.47;100.00;65468.63;4707824;30;20124;-71
2023/02/08 01:41:02;;;;;;;17.42;6.80;;;;;;;-146.47;100.00;65468.63;4702177;30;20588;-72
2023/02/08 01:43:51;;;;;;;18.05;6.97;;;;;;;-146.47;100.00;65468.63;4697664;30;20051;-71
2023/02/08 01:46:17;;;;;;;13.40;5.97;;;;;;;-146.47;100.00;65468.63;4697084;30;20049;-71
2023/02/08 01:48:42;;;;;;;17.50;6.75;;;;;;;-146.47;100.00;65468.63;4702101;30;20532;-71
2023/02/08 01:51:13;;;;;;;15.65;7.13;;;;;;;-146.47;100.00;65468.63;4705262;30;20188;-71
2023/02/08 01:53:41;;;;;;;17.83;7.07;;;;;;;-146.47;100.00;65468.63;4700015;30;20132;-71
2023/02/08 01:56:11;;;;;;;17.13;6.53;;;;;;;-146.47;100.00;65468.63;4705130;30;20045;-71
2023/02/08 01:58:41;;;;;;;15.82;7.18;;;;;;;-146.47;100.00;65468.63;4699791;30;20053;-72
2023/02/08 02:01:07;;;;;;;17.40;6.25;;;;;;;-146.47;100.00;65468.63;4700784;30;20070;-71
2023/02/08 02:03:33;;;;;;;14.95;6.35;;;;;;;-146.47;100.00;65468.63;4709861;30;20514;-71
2023/02/08 02:06:09;;;;;;;15.77;6.68;;;;;;;-146.47;100.00;65468.63;4696697;30;20115;-72
2023/02/08 02:08:35;;;;;;;17.35;6.35;;;;;;;-146.47;100.00;65468.63;4703385;30;20495;-72
2023/02/08 02:11:01;;;;;;;18.73;6.63;;;;;;;-146.47;100.00;65468.63;4704095;30;20041;-72
2023/02/08 02:13:27;;;;;;;17.33;7.00;;;;;;;-146.47;100.00;65468.63;4697295;30;20107;-72
2023/02/08 02:15:53;;;;;;;17.63;6.93;;;;;;;-146.47;100.00;65468.63;4701205;30;20376;-72
2023/02/08 02:18:25;;;;;;;17.48;6.80;;;;;;;-146.47;100.00;65468.63;4697015;30;20049;-72
2023/02/08 02:21:38;;;;;;;21.98;8.95;;;;;;;-146.47;100.00;65468.63;4702422;30;20053;-73
2023/02/08 02:24:37;;;;;;;17.63;6.70;;;;;;;-146.47;100.00;65468.63;4698180;30;20574;-72
2023/02/08 02:27:13;;;;;;;17.15;6.18;;;;;;;-146.47;100.00;65468.63;4699672;30;20068;-73
2023/02/08 02:30:04;;;;;;;16.48;6.68;;;;;;;-146.47;100.00;65468.63;4706269;30;20081;-72
2023/02/08 02:32:53;;;;;;;18.13;6.97;;;;;;;-146.47;100.00;65468.63;4707144;30;20045;-73
2023/02/08 02:35:44;;;;;;;15.38;6.57;;;;;;;-146.47;100.00;65468.63;4709446;30;20057;-73
2023/02/08 02:38:28;;;;;;;19.05;8.07;;;;;;;-146.47;100.00;65468.63;4696783;30;20065;-73
2023/02/08 02:44:24;;;;;;;20.35;7.25;;;;;;;-146.47;100.00;65468.63;4695820;30;20062;-73
2023/02/08 02:47:00;;;;;;;19.08;8.02;;;;;;;-146.47;100.00;65468.63;4702600;30;20054;-73
2023/02/08 02:49:55;;;;;;;12.63;6.65;;;;;;;-146.47;100.00;65468.63;4697971;30;20061;-73
2023/02/08 02:52:32;;;;;;;13.02;5.97;;;;;;;-146.47;100.00;65468.63;4696398;30;20050;-73
2023/02/08 02:55:06;;;;;;;16.45;7.30;;;;;;;-146.47;100.00;65468.63;4701104;30;20053;-73
2023/02/08 02:57:33;;;;;;;15.35;7.10;;;;;;;-146.47;100.00;65468.63;4696911;30;20112;-73
2023/02/08 03:00:04;;;;;;;15.40;6.38;;;;;;;-146.47;100.00;65468.63;4705684;30;20060;-73
2023/02/08 03:02:30;;;;;;;21.00;7.82;;;;;;;-146.47;100.00;65468.63;4700214;30;20063;-73
2023/02/08 03:04:56;;;;;;;19.17;7.80;;;;;;;-146.47;100.00;65468.63;4697062;30;20571;-73
2023/02/08 03:07:31;;;;;;;21.45;6.93;;;;;;;-146.47;100.00;65468.63;4708683;30;20418;-73
2023/02/08 03:10:18;;;;;;;20.23;8.10;;;;;;;-146.47;100.00;65468.63;4706806;30;20399;-73
2023/02/08 03:12:56;;;;;;;25.73;8.32;;;;;;;-146.47;100.00;65468.63;4704827;30;20136;-73
2023/02/08 03:15:45;;;;;;;15.57;7.05;;;;;;;-146.47;100.00;65468.63;4696135;30;20061;-73
2023/02/08 03:18:35;;;;;;;18.13;7.47;;;;;;;-146.47;100.00;65468.63;4705977;30;20094;-73
2023/02/08 03:21:10;;;;;;;16.35;6.97;;;;;;;-146.47;100.00;65468.63;4698104;30;20053;-72
2023/02/08 03:23:48;;;;;;;18.88;7.57;;;;;;;-146.47;100.00;65468.63;4697644;30;20042;-73
2023/02/08 03:26:24;;;;;;;14.82;6.60;;;;;;;-146.47;100.00;65468.63;4696063;30;20076;-73
2023/02/08 03:29:01;;;;;;;14.32;7.22;;;;;;;-146.47;100.00;65468.63;4699690;30;20586;-73
2023/02/08 03:32:07;;;;;;;18.27;7.05;;;;;;;-146.47;100.00;65468.63;4699499;30;20045;-73
2023/02/08 03:34:58;;;;;;;13.65;6.32;;;;;;;-146.47;100.00;65468.63;4693187;30;20092;-72
2023/02/08 03:37:38;;;;;;;17.40;6.55;;;;;;;-146.47;100.00;65468.63;4702369;30;20066;-73
2023/02/08 03:40:38;;;;;;;19.75;7.10;;;;;;;-146.47;100.00;65468.63;4699137;30;20045;-73
2023/02/08 03:43:12;;;;;;;12.80;6.35;;;;;;;-146.47;100.00;65468.63;4704687;30;20586;-73
2023/02/08 03:45:44;;;;;;;18.42;8.52;;;;;;;-146.47;100.00;65468.63;4699675;30;20203;-72
2023/02/08 03:48:12;;;;;;;22.38;7.93;;;;;;;-146.47;100.00;65468.63;4699387;30;20060;-73
2023/02/08 03:50:40;;;;;;;17.23;7.28;;;;;;;-146.47;100.00;65468.63;4700591;30;20069;-73
2023/02/08 03:53:07;;;;;;;16.02;6.50;;;;;;;-146.47;100.00;65468.63;4699241;30;20053;-73
2023/02/08 03:55:35;;;;;;;14.23;7.32;;;;;;;-146.47;100.00;65468.63;4699552;30;20073;-73
2023/02/08 03:58:25;;;;;;;20.52;6.90;;;;;;;-146.47;100.00;65468.63;4710629;30;20430;-73
2023/02/08 04:01:18;;;;;;;20.00;6.85;;;;;;;-146.47;100.00;65468.63;4701026;30;20594;-73
2023/02/08 04:03:48;;;;;;;16.60;7.88;;;;;;;-146.47;100.00;65468.63;4702248;30;20470;-73
2023/02/08 04:06:15;;;;;;;15.82;6.75;;;;;;;-146.47;100.00;65468.63;4711018;30;20076;-73
2023/02/08 04:08:40;;;;;;;17.00;6.55;;;;;;;-146.47;100.00;65468.63;4699136;30;20053;-73
2023/02/08 04:11:06;;;;;;;13.25;6.72;;;;;;;-146.47;100.00;65468.63;4707290;30;20111;-73
2023/02/08 04:13:32;;;;;;;25.52;8.52;;;;;;;-146.47;100.00;65468.63;4697825;30;20419;-73
2023/02/08 04:15:57;;;;;;;15.45;5.90;;;;;;;-146.47;100.00;65468.63;4702237;30;20049;-73
2023/02/08 04:18:22;;;;;;;20.85;7.32;;;;;;;-146.47;100.00;65468.63;4700358;30;20054;-73
2023/02/08 04:20:48;;;;;;;17.80;7.00;;;;;;;-146.47;100.00;65468.63;4700910;30;20057;-73
2023/02/08 04:23:13;;;;;;;15.07;6.80;;;;;;;-146.47;100.00;65468.63;4701287;30;20470;-73
2023/02/08 04:25:39;;;;;;;20.13;7.43;;;;;;;-146.47;100.00;65468.63;4699685;30;20408;-73
2023/02/08 04:28:05;;;;;;;21.23;7.90;;;;;;;-146.47;100.00;65468.63;4702260;30;20081;-73
2023/02/08 04:30:30;;;;;;;17.48;7.78;;;;;;;-146.47;100.00;65468.63;4710772;30;20518;-73
2023/02/08 04:32:57;;;;;;;24.17;7.30;;;;;;;-146.47;100.00;65468.63;4701626;30;20058;-73
2023/02/08 04:35:22;;;;;;;14.32;5.95;;;;;;;-146.47;100.00;65468.63;4697949;30;20055;-73
2023/02/08 04:37:48;;;;;;;17.83;6.90;;;;;;;-146.47;100.00;65468.63;4700526;30;20136;-73
2023/02/08 04:40:13;;;;;;;21.75;7.65;;;;;;;-146.47;100.00;65468.63;4701469;30;20060;-73
2023/02/08 04:42:39;;;;;;;20.70;8.73;;;;;;;-146.47;100.00;65468.63;4703222;30;20120;-73
2023/02/08 04:45:05;;;;;;;16.95;7.88;;;;;;;-146.47;100.00;65468.63;4698461;30;20061;-71
2023/02/08 04:47:31;;;;;;;16.05;7.07;;;;;;;-146.47;100.00;65468.63;4699763;30;20189;-72
2023/02/08 04:49:56;;;;;;;16.73;6.85;;;;;;;-146.47;100.00;65468.63;4703514;30;20408;-72
2023/02/08 04:52:22;;;;;;;12.73;6.88;;;;;;;-146.47;100.00;65468.63;4701933;30;20120;-71
2023/02/08 04:54:47;;;;;;;17.95;7.53;;;;;;;-146.47;100.00;65468.63;4697120;30;20114;-72
2023/02/08 04:57:13;;;;;;;23.17;7.40;;;;;;;-146.47;100.00;65468.63;4707036;30;20127;-72
2023/02/08 04:59:39;;;;;;;18.75;7.50;;;;;;;-146.47;100.00;65468.63;4703509;30;20493;-71
2023/02/08 05:02:05;;;;;;;14.48;6.88;;;;;;;-146.47;100.00;65468.63;4708461;30;20049;-72
2023/02/08 05:04:30;;;;;;;16.13;7.57;;;;;;;-146.47;100.00;65468.63;4702847;30;20066;-72
2023/02/08 05:06:56;;;;;;;19.33;7.97;;;;;;;-146.47;100.00;65468.63;4703220;30;20060;-72
2023/02/08 05:09:21;;;;;;;20.88;7.25;;;;;;;-146.47;100.00;65468.63;4705217;30;20049;-72
2023/02/08 05:11:47;;;;;;;20.58;7.60;;;;;;;-146.47;100.00;65468.63;4706064;30;20082;-72
2023/02/08 05:14:12;;;;;;;17.38;8.18;;;;;;;-146.47;100.00;65468.63;4701771;30;20076;-71
2023/02/08 05:16:38;;;;;;;16.33;6.75;;;;;;;-146.47;100.00;65468.63;4697953;30;20419;-71
2023/02/08 05:19:03;;;;;;;21.35;8.18;;;;;;;-146.47;100.00;65468.63;4700796;30;20111;-72
2023/02/08 05:21:29;;;;;;;17.52;8.20;;;;;;;-146.47;100.00;65468.63;4698273;30;20613;-72
2023/02/08 05:23:54;;;;;;;17.52;8.18;;;;;;;-146.47;100.00;65468.63;4706674;30;20506;-71
2023/02/08 05:26:20;;;;;;;22.88;7.38;;;;;;;-146.47;100.00;65468.63;4704704;30;20069;-71
2023/02/08 05:28:47;;;;;;;17.33;8.05;;;;;;;-146.47;100.00;65468.63;4702206;30;20438;-71
2023/02/08 05:31:19;;;;;;;20.88;9.40;;;;;;;-146.47;100.00;65468.63;4710624;30;20049;-71
2023/02/08 05:33:45;;;;;;;18.45;7.18;;;;;;;-146.47;100.00;65468.63;4705404;30;20124;-71
2023/02/08 05:36:11;;;;;;;20.73;7.72;;;;;;;-146.47;100.00;65468.63;4701933;30;20418;-71
2023/02/08 05:38:36;;;;;;;21.20;7.63;;;;;;;-146.47;100.00;65468.63;4701231;30;20045;-71
2023/02/08 05:41:02;;;;;;;20.77;8.45;;;;;;;-146.47;100.00;65468.63;4701303;30;20046;-72
2023/02/08 05:43:27;;;;;;;19.80;8.05;;;;;;;-146.47;100.00;65468.63;4706904;30;20049;-72
2023/02/08 05:45:53;;;;;;;22.67;8.52;;;;;;;-146.47;100.00;65468.63;4697792;30;20132;-71
2023/02/08 05:48:19;;;;;;;17.42;7.55;;;;;;;-146.47;100.00;65468.63;4698984;30;20058;-72
2023/02/08 05:50:44;;;;;;;25.48;8.27;;;;;;;-146.47;100.00;65468.63;4707309;30;20132;-73
2023/02/08 05:53:11;;;;;;;16.77;7.50;;;;;;;-146.47;100.00;65468.63;4699598;30;20440;-73
2023/02/08 05:55:36;;;;;;;22.27;9.00;;;;;;;-146.47;100.00;65468.63;4697439;30;20099;-73
2023/02/08 05:58:02;;;;;;;20.63;7.82;;;;;;;-146.47;100.00;65468.63;4700059;30;20423;-72
2023/02/08 06:00:27;;;;;;;18.10;8.30;;;;;;;-146.47;100.00;65468.63;4708731;30;20077;-72
2023/02/08 06:02:53;;;;;;;25.60;8.13;;;;;;;-146.47;100.00;65468.63;4707530;30;20084;-72
2023/02/08 06:05:18;;;;;;;20.75;7.95;;;;;;;-146.47;100.00;65468.63;4704703;30;20128;-72
2023/02/08 06:07:44;;;;;;;14.68;7.22;;;;;;;-146.47;100.00;65468.63;4697892;30;20069;-72
2023/02/08 06:10:10;;;;;;;19.98;8.40;;;;;;;-146.47;100.00;65468.63;4703386;30;20087;-72
2023/02/08 06:12:35;;;;;;;26.58;8.13;;;;;;;-146.47;100.00;65468.63;4696876;30;20045;-72
2023/02/08 06:15:01;;;;;;;23.52;8.90;;;;;;;-146.47;100.00;65468.63;4697179;30;20045;-73
2023/02/08 06:17:27;;;;;;;23.25;8.80;;;;;;;-146.47;100.00;65468.63;4705143;30;20471;-73
2023/02/08 06:19:53;;;;;;;17.70;8.48;;;;;;;-146.47;100.00;65468.63;4714107;30;20064;-73
2023/02/08 06:22:18;;;;;;;20.48;8.35;;;;;;;-146.47;100.00;65468.63;4703420;30;20101;-72
2023/02/08 06:24:44;;;;;;;23.63;8.93;;;;;;;-146.47;100.00;65468.63;4710794;30;20515;-72
2023/02/08 06:27:09;;;;;;;23.95;9.52;;;;;;;-146.47;100.00;65468.63;4702986;30;20403;-73
2023/02/08 06:29:35;;;;;;;20.88;8.50;;;;;;;-146.47;100.00;65468.63;4697115;30;20143;-73
2023/02/08 06:32:00;;;;;;;21.42;9.60;;;;;;;-146.47;100.00;65468.63;4704487;30;20042;-72
2023/02/08 06:34:26;;;;;;;20.70;9.05;;;;;;;-146.47;100.00;65468.63;4705960;30;20048;-73
2023/02/08 06:36:51;;;;;;;22.10;9.10;;;;;;;-146.47;100.00;65468.63;4706639;30;20581;-74
2023/02/08 06:39:17;;;;;;;20.70;8.82;;;;;;;-146.47;100.00;65468.63;4698972;30;20427;-75
2023/02/08 06:41:42;;;;;;;20.33;7.75;;;;;;;-146.47;100.00;65468.63;4706405;30;20426;-74
2023/02/08 06:44:08;;;;;;;26.70;11.73;;;;;;;-146.47;100.00;65468.63;4698638;30;20057;-75
2023/02/08 06:46:33;;;;;;;29.88;9.50;;;;;;;-146.47;100.00;65468.63;4696482;30;20049;-75
2023/02/08 06:48:59;;;;;;;22.92;9.32;;;;;;;-146.47;100.00;65468.63;4698885;30;20562;-74
2023/02/08 06:51:25;;;;;;;22.90;9.63;;;;;;;-146.47;100.00;65468.63;4699043;30;20050;-74
2023/02/08 06:53:51;;;;;;;31.10;9.73;;;;;;;-146.47;100.00;65468.63;4696676;30;20094;-76
2023/02/08 06:56:17;;;;;;;23.83;9.65;;;;;;;-146.47;100.00;65468.63;4699635;30;20456;-73
2023/02/08 06:58:42;;;;;;;19.90;9.02;;;;;;;-146.47;100.00;65468.63;4702921;30;20057;-74
2023/02/08 07:01:12;;;;;;;29.13;10.60;;;;;;;-146.47;100.00;65468.63;4698472;30;20053;-72
2023/02/08 07:03:38;;;;;;;19.45;9.15;;;;;;;-146.47;100.00;65468.63;4702483;30;20076;-74
2023/02/08 07:06:03;;;;;;;25.20;9.82;;;;;;;-146.47;100.00;65468.63;4700278;30;20053;-73
2023/02/08 07:08:30;;;;;;;23.83;9.95;;;;;;;-146.47;100.00;65468.63;4702044;30;20107;-73
2023/02/08 07:10:55;;;;;;;26.45;11.32;;;;;;;-146.47;100.00;65468.63;4707469;30;20057;-73
2023/02/08 07:13:21;;;;;;;21.63;8.85;;;;;;;-146.47;100.00;65468.63;4701091;30;20041;-73
2023/02/08 07:15:46;;;;;;;22.20;10.27;;;;;;;-146.47;100.00;65468.63;4708502;30;20107;-75
2023/02/08 07:18:12;;;;;;;25.73;10.40;;;;;;;-146.47;100.00;65468.63;4710942;30;20517;-76
2023/02/08 07:20:37;;;;;;;19.90;8.65;;;;;;;-146.47;100.00;65468.63;4717695;30;20631;-75
2023/02/08 07:23:03;;;;;;;24.23;9.02;;;;;;;-146.47;100.00;65468.63;4703940;30;20069;-73
2023/02/08 07:25:28;;;;;;;26.20;10.00;;;;;;;-146.47;100.00;65468.63;4703333;30;20064;-73
2023/02/08 07:27:54;;;;;;;19.10;9.25;;;;;;;-146.47;100.00;65468.63;4712719;30;20053;-74
2023/02/08 07:30:20;;;;;;;23.10;9.20;;;;;;;-146.47;100.00;65468.63;4698361;30;20096;-73
2023/02/08 07:32:45;;;;;;;19.90;8.15;;;;;;;-146.47;100.00;65468.63;4706657;30;20125;-74
2023/02/08 07:35:11;;;;;;;17.58;8.13;;;;;;;-146.47;100.00;65468.63;4705882;30;20426;-73
2023/02/08 07:37:36;;;;;;;24.85;9.73;;;;;;;-146.47;100.00;65468.63;4700364;30;20073;-73
2023/02/08 07:40:02;;;;;;;23.63;9.55;;;;;;;-146.47;100.00;65468.63;4702776;30;20060;-73
2023/02/08 07:42:27;;;;;;;26.40;9.60;;;;;;;-146.47;100.00;65468.63;4713201;30;20069;-73
2023/02/08 07:44:53;;;;;;;33.47;11.18;;;;;;;-146.47;100.00;65468.63;4717077;30;20053;-72
2023/02/08 07:47:18;;;;;;;23.83;9.43;;;;;;;-146.47;100.00;65468.63;4699467;30;20491;-73
2023/02/08 07:49:44;;;;;;;22.13;10.23;;;;;;;-146.47;100.00;65468.63;4710469;30;20503;-72
2023/02/08 07:52:09;;;;;;;26.55;11.60;;;;;;;-146.47;100.00;65468.63;4708287;30;20549;-73
2023/02/08 07:54:35;;;;;;;26.33;10.48;;;;;;;-146.47;100.00;65468.63;4699247;30;20419;-75
2023/02/08 07:57:01;;;;;;;24.48;10.30;;;;;;;-146.47;100.00;65468.63;4704159;30;20562;-71
2023/02/08 07:59:26;;;;;;;20.50;9.80;;;;;;;-146.47;100.00;65468.63;4699571;30;20134;-71
2023/02/08 08:01:52;;;;;;;26.63;10.65;;;;;;;-146.47;100.00;65468.63;4703986;30;20069;-71
2023/02/08 08:04:18;;;;;;;23.60;10.20;;;;;;;-146.47;100.00;65468.63;4700337;30;20459;-72
2023/02/08 08:06:45;;;;;;;25.50;10.43;;;;;;;-146.47;100.00;65468.63;4699046;30;20049;-72
2023/02/08 08:09:11;;;;;;;21.88;8.68;;;;;;;-146.47;100.00;65468.63;4699039;30;20545;-71
2023/02/08 08:11:36;;;;;;;23.95;10.48;;;;;;;-146.47;100.00;65468.63;4713519;30;20045;-71
2023/02/08 08:14:02;;;;;;;27.70;9.60;;;;;;;-146.47;100.00;65468.63;4703111;30;20056;-72
2023/02/08 08:16:27;;;;;;;21.73;9.90;;;;;;;-146.47;100.00;65468.63;4698906;30;20093;-72
2023/02/08 08:18:53;;;;;;;25.13;10.52;;;;;;;-146.47;100.00;65468.63;4706678;30;20052;-71
2023/02/08 08:21:18;;;;;;;21.27;8.93;;;;;;;-146.47;100.00;65468.63;4698508;30;20435;-72
2023/02/08 08:23:44;;;;;;;22.98;9.77;;;;;;;-146.47;100.00;65468.63;4708968;30;20053;-72
2023/02/08 08:26:15;;;;;;;26.40;11.38;;;;;;;-146.47;100.00;65468.63;4702053;30;20080;-71
2023/02/08 08:28:42;;;;;;;29.85;10.32;;;;;;;-146.47;100.00;65468.63;4698668;30;20121;-71
2023/02/08 08:31:10;;;;;;;26.48;10.18;;;;;;;-146.47;100.00;65468.63;4700029;30;20054;-72
2023/02/08 08:33:35;;;;;;;22.80;8.93;;;;;;;-146.47;100.00;65468.63;4700468;30;20543;-72
2023/02/08 08:36:01;;;;;;;27.25;10.13;;;;;;;-146.47;100.00;65468.63;4698669;30;20053;-72
2023/02/08 08:38:26;;;;;;;33.92;10.07;;;;;;;-146.47;100.00;65468.63;4700435;30;20061;-72
2023/02/08 08:40:52;;;;;;;27.35;10.77;;;;;;;-146.47;100.00;65468.63;4703588;30;20049;-71
2023/02/08 08:43:18;;;;;;;30.85;9.70;;;;;;;-146.47;100.00;65468.63;4698442;30;20504;-71
2023/02/08 08:45:43;;;;;;;16.90;8.02;;;;;;;-146.47;100.00;65468.63;4698547;30;20060;-71
2023/02/08 08:48:09;;;;;;;24.38;9.55;;;;;;;-146.47;100.00;65468.63;4700540;30;20474;-72
2023/02/08 08:50:35;;;;;;;21.75;9.10;;;;;;;-146.47;100.00;65468.63;4698369;30;20057;-72
2023/02/08 08:53:00;;;;;;;19.10;8.80;;;;;;;-146.47;100.00;65468.63;4698377;30;20046;-71
2023/02/08 08:55:27;;;;;;;27.25;9.15;;;;;;;-146.47;100.00;65468.63;4698316;30;20049;-72
2023/02/08 08:57:52;;;;;;;25.70;10.20;;;;;;;-146.47;100.00;65468.63;4698555;30;20071;-71
2023/02/08 09:00:18;;;;;;;30.60;9.25;;;;;;;-146.47;100.00;65468.63;4699686;30;20566;-71
2023/02/08 09:02:44;;;;;;;19.88;8.95;;;;;;;-146.47;100.00;65468.63;4701453;30;20518;-71
2023/02/08 09:05:09;;;;;;;26.90;9.48;;;;;;;-146.47;100.00;65468.63;4699287;30;20534;-71
2023/02/08 09:07:35;;;;;;;21.55;9.55;;;;;;;-146.47;100.00;65468.63;4713771;30;20064;-72
2023/02/08 09:10:01;;;;;;;19.80;8.77;;;;;;;-146.47;100.00;65468.63;4700109;30;20494;-72
2023/02/08 09:12:27;;;;;;;22.02;9.23;;;;;;;-146.47;100.00;65468.63;4702612;30;20041;-71
2023/02/08 09:14:52;;;;;;;24.50;9.77;;;;;;;-146.47;100.00;65468.63;4701801;30;20049;-71
2023/02/08 09:17:18;;;;;;;22.45;8.65;;;;;;;-146.47;100.00;65468.63;4713711;30;20111;-71
2023/02/08 09:19:45;;;;;;;21.23;8.95;;;;;;;-146.47;100.00;65468.63;4708664;30;20052;-70
2023/02/08 09:22:10;;;;;;;22.73;8.40;;;;;;;-146.47;100.00;65468.63;4702692;30;20055;-71
2023/02/08 09:24:36;;;;;;;18.88;8.40;;;;;;;-146.47;100.00;65468.63;4698348;30;20049;-71
2023/02/08 09:27:02;;;;;;;19.25;7.65;;;;;;;-146.47;100.00;65468.63;4699556;30;20046;-71
2023/02/08 09:29:29;;;;;;;21.63;8.05;;;;;;;-146.47;100.00;65468.63;4711964;30;20053;-71
2023/02/08 09:31:55;;;;;;;25.15;9.32;;;;;;;-146.47;100.00;65468.63;4703343;30;20087;-71
2023/02/08 09:34:20;;;;;;;17.33;7.60;;;;;;;-146.47;100.00;65468.63;4712387;30;20045;-71
2023/02/08 09:36:46;;;;;;;23.05;8.50;;;;;;;-146.47;100.00;65468.63;4702126;30;20045;-71
2023/02/08 09:39:20;;;;;;;21.58;9.23;;;;;;;-146.47;100.00;65468.63;4712601;30;20045;-71
2023/02/08 09:41:53;;;;;;;30.27;10.25;;;;;;;-146.47;100.00;65468.63;4709030;30;20053;-71
2023/02/08 09:44:31;;;;;;;32.10;9.73;;;;;;;-146.47;100.00;65468.63;4716539;30;20057;-71
2023/02/08 09:47:02;;;;;;;23.77;10.45;;;;;;;-146.47;100.00;65468.63;4698929;30;20289;-71
2023/02/08 09:49:39;;;;;;;24.20;9.75;;;;;;;-146.47;100.00;65468.63;4702588;30;20072;-71
2023/02/08 09:52:19;;;;;;;23.27;10.20;;;;;;;-146.47;100.00;65468.63;4697555;30;20470;-71
2023/02/08 09:54:52;;;;;;;22.50;9.40;;;;;;;-146.47;100.00;65468.63;4700554;30;20060;-72
2023/02/08 09:57:22;;;;;;;25.40;10.20;;;;;;;-146.47;100.00;65468.63;4698651;30;20130;-70
2023/02/08 09:59:55;;;;;;;23.15;10.02;;;;;;;-146.47;100.00;65468.63;4698695;30;20060;-71
2023/02/08 10:02:27;;;;;;;25.80;9.80;;;;;;;-146.47;100.00;65468.63;4702529;30;20050;-71
2023/02/08 10:05:01;;;;;;;23.83;8.93;;;;;;;-146.47;100.00;65468.63;4697451;30;20164;-72
2023/02/08 10:07:28;;;;;;;23.40;9.70;;;;;;;-146.47;100.00;65468.63;4697830;30;20495;-74
2023/02/08 10:09:58;;;;;;;21.50;8.20;;;;;;;-146.47;100.00;65468.63;4700802;30;20426;-73
2023/02/08 10:12:45;;;;;;;22.60;10.77;;;;;;;-146.47;100.00;65468.63;4703675;30;20053;-75
2023/02/08 10:15:11;;;;;;;19.13;8.48;;;;;;;-146.47;100.00;65468.63;4710228;30;20045;-77
2023/02/08 10:18:01;;;;;;;24.65;10.25;;;;;;;-146.47;100.00;65468.63;4708245;30;20418;-78
2023/02/08 10:20:45;;;;;;;21.02;8.30;;;;;;;-146.47;100.00;65468.63;4711012;30;20049;-79
2023/02/08 10:23:34;;;;;;;25.52;10.10;;;;;;;-146.47;100.00;65468.63;4703469;30;20063;-77
2023/02/08 10:26:23;;;;;;;18.83;9.05;;;;;;;-146.47;100.00;65468.63;4709714;30;20477;-79
2023/02/08 10:29:20;;;;;;;23.85;9.77;;;;;;;-146.47;100.00;65468.63;4702634;30;20554;-80
2023/02/08 10:31:59;;;;;;;19.35;8.80;;;;;;;-146.47;100.00;65468.63;4703896;30;20058;-79
2023/02/08 10:34:39;;;;;;;23.70;10.00;;;;;;;-146.47;100.00;65468.63;4708675;30;20121;-78
2023/02/08 10:37:13;;;;;;;21.50;8.98;;;;;;;-146.47;100.00;65468.63;4709685;30;20071;-78
2023/02/08 10:39:39;;;;;;;22.42;9.50;;;;;;;-146.47;100.00;65468.63;4701195;30;20053;-79
2023/02/08 10:42:13;;;;;;;23.67;9.52;;;;;;;-146.47;100.00;65468.63;4702033;30;20049;-76
2023/02/08 10:44:53;;;;;;;21.85;9.88;;;;;;;-146.47;100.00;65468.63;4715116;30;20049;-80
2023/02/08 10:47:48;;;;;;;26.88;9.98;;;;;;;-146.47;100.00;65468.63;4704415;30;20458;-78
2023/02/08 10:50:34;;;;;;;26.13;9.63;;;;;;;-146.47;100.00;65468.63;4716333;30;20049;-78
2023/02/08 10:53:00;;;;;;;23.45;8.65;;;;;;;-146.47;100.00;65468.63;4703359;30;20163;-77
2023/02/08 10:55:26;;;;;;;24.85;10.18;;;;;;;-146.47;100.00;65468.63;4704217;30;20739;-78
2023/02/08 10:57:57;;;;;;;15.82;8.27;;;;;;;-146.47;100.00;65468.63;4705747;30;20053;-78
2023/02/08 11:00:29;;;;;;;19.92;8.98;;;;;;;-146.47;100.00;65468.63;4703082;30;20124;-76
2023/02/08 11:02:59;;;;;;;18.02;9.50;;;;;;;-146.47;100.00;65468.63;4705224;30;20053;-76
2023/02/08 11:05:25;;;;;;;20.38;8.77;;;;;;;-146.47;100.00;65468.63;4718942;30;20053;-77
2023/02/08 11:08:04;;;;;;;18.73;8.40;;;;;;;-146.47;100.00;65468.63;4711280;30;20502;-78
2023/02/08 11:10:29;;;;;;;21.10;9.15;;;;;;;-146.47;100.00;65468.63;4715123;30;20053;-80
2023/02/08 11:13:13;;;;;;;20.90;9.10;;;;;;;-146.47;100.00;65468.63;4708964;30;20045;-80